Addison, Pennsylvania
Current Conditions -  °F | °C
As of 3:20 PM on Saturday 25 Oct 2014 (Local Time) from K2G4 Reporting Station
Clear Clear  
Wind Chill: 57°   Ceiling: Unl
Heat Index: 57°   Visibility: 10mi
Dew Point: 43°   Wind: 13mph
Humidity: 59%   Direction: 250°WSW
Pressure: 29.86"   Gusts: 18mph
Location:  39.75°N, 79.34°W
Report Text: K2G4 251920Z AUTO 25011G16KT 212V292 10SM CLR 14/06 A2986 RMK AO1
Loading
Personal Weather Stations






























Interactive Weather Map
Tropical Storm Tracking
New forecast layout! Learn more

10-Day Weather Forecast

Advertisements
Track Severe Weather on mobile